Latest  Newer  Older  Last 2 hours slideshow  Last 24 hours slideshow  Refresh every 5 minutes 
Current image  Latest image  Rain/snow radar  Cloud coverage sat images 

All time is UTC (add 2 hours to UTC in wintertime, 3 hours to UTC in DST for Latvia local time)

2020/04/02 18:50 EVRA 021850Z 21016KT 9999 BKN029 BKN035 OVC048 06/01 Q0994 NOSIG
2020/04/02 18:50 EVLA 021850Z AUTO 21023G34KT 9999 OVC053/// 07/03 Q0994
2020/04/02 18:50 EVVA 021850Z AUTO 22027G37KT 9999 SCT026 BKN044 OVC060 06/03 Q0990
2020/04/02 18:50 EYKA 021850Z 22010KT 200V260 CAVOK 07/M02 Q1002
2020/04/02 18:50 EYPA 021850Z AUTO 21014KT 180V240 9999 BKN056/// 06/02 Q0998
2020/04/02 18:50 EYSA 021850Z 21017KT 9999 FEW027 OVC050 05/01 Q0998 BLU NOSIG
2020/04/02 18:50 EYVI 021850Z 21013KT CAVOK 06/M00 Q1003 NOSIG

2020/04/02 18:50 EEKE 021850Z AUTO 22023G37KT 9999NDV BKN015 BKN017 06/03 Q0986
2020/04/02 10:50 EEPU 021050Z 22019KT 9999 BKN018 08/04 Q0992
2020/04/02 18:50 EETN 021850Z 21019G29KT 9999 SCT021 05/01 Q0983 R08/09//95 TEMPO 21020G30KT
2020/04/02 18:50 EETU 021850Z AUTO 22021G32KT 9999 OVC036/// 06/M01 Q0990
   RIGA AIRPORT     EVRA               56 55N  023 58E   10   X     T          6 LV
   LIEPAJA INTL     EVLA        26406  56 31N  021 06E    4   X                8 LV
   VENTPILS         EVVA               57 21N  021 33E    6   X                8 LV
   KAUNAS           EYKA               54 54N  023 55E   77   X     T          6 LT
   PALANGA INTL     EYPA               55 55N  021 03E   10   X                6 LT
   SIAULIAI INTL    EYSA               55 54N  023 24E  135   X     T          6 LT
   VILNIUS INTL     EYVI        26730  54 38N  025 17E  197   X     T          6 LT
   KARDLA           EEKA        26116  58 59N  022 50E    4   X                8 EE
   KURESSAARE       EEKE               58 14N  022 31E    4   X                8 EE
   PARNU            EEPU               58 25N  024 28E   14   X                8 EE
   TALLINN          EETN        26038  59 24N  024 49E   40   X     T          8 EE
   TARTU            EETU               58 19N  026 41E   67   X                8 EE